Time;durP1;ratioP1;P1;durP2;ratioP2;P2;SDS_P1;SDS_P2;PMS_P1;PMS_P2;Temp;Humidity;BMP_temperature;BMP_pressure;BME280_temperature;BME280_humidity;BME280_pressure;Samples;Min_cycle;Max_cycle;Signal;HPM_P1;HPM_P2
2021/11/25 00:01:49;;;;;;;10.80;5.47;;;;;;;;;;4860219;29;20139;-71
2021/11/25 00:04:19;;;;;;;12.75;5.75;;;;;;;;;;4872710;29;20117;-70
2021/11/25 00:06:48;;;;;;;12.88;5.45;;;;;;;;;;4875858;29;20685;-71
2021/11/25 00:09:17;;;;;;;9.82;4.43;;;;;;;;;;4874564;29;20078;-70
2021/11/25 00:11:46;;;;;;;12.93;5.35;;;;;;;;;;4873389;29;20112;-70
2021/11/25 00:14:17;;;;;;;13.27;5.83;;;;;;;;;;4888541;29;20109;-71
2021/11/25 00:16:46;;;;;;;15.00;6.40;;;;;;;;;;4874324;29;20211;-70
2021/11/25 00:19:16;;;;;;;11.77;4.47;;;;;;;;;;4876735;29;20551;-70
2021/11/25 00:21:46;;;;;;;10.95;4.80;;;;;;;;;;4874265;29;20069;-70
2021/11/25 00:24:15;;;;;;;13.55;6.03;;;;;;;;;;4874366;29;20137;-72
2021/11/25 00:26:44;;;;;;;9.77;5.13;;;;;;;;;;4859472;29;20077;-71
2021/11/25 00:29:13;;;;;;;10.90;5.63;;;;;;;;;;4872886;29;20177;-71
2021/11/25 00:31:43;;;;;;;14.93;5.75;;;;;;;;;;4859080;29;20089;-71
2021/11/25 00:34:12;;;;;;;11.75;5.47;;;;;;;;;;4872963;29;20095;-70
2021/11/25 00:36:40;;;;;;;14.13;6.20;;;;;;;;;;4873504;29;20092;-72
2021/11/25 00:39:40;;;;;;;10.97;4.37;;;;;;;;;;4871428;29;20170;-71
2021/11/25 00:42:09;;;;;;;10.13;4.53;;;;;;;;;;4874165;29;20130;-70
2021/11/25 00:44:38;;;;;;;12.18;4.43;;;;;;;;;;4856993;29;20133;-71
2021/11/25 00:47:08;;;;;;;16.95;5.97;;;;;;;;;;4859249;29;20074;-70
2021/11/25 00:49:37;;;;;;;13.95;6.47;;;;;;;;;;4878012;29;20171;-70
2021/11/25 00:52:07;;;;;;;11.90;5.80;;;;;;;;;;4876776;29;20091;-71
2021/11/25 00:54:36;;;;;;;11.05;4.55;;;;;;;;;;4871668;29;20489;-71
2021/11/25 00:57:05;;;;;;;11.02;5.20;;;;;;;;;;4856705;29;20418;-71
2021/11/25 00:59:34;;;;;;;14.77;5.60;;;;;;;;;;4874038;29;20395;-70
2021/11/25 01:02:02;;;;;;;11.45;5.75;;;;;;;;;;4873281;29;20085;-70
2021/11/25 01:04:32;;;;;;;16.07;6.63;;;;;;;;;;4873633;29;20759;-70
2021/11/25 01:07:01;;;;;;;13.38;6.75;;;;;;;;;;4870286;29;20168;-71
2021/11/25 01:09:29;;;;;;;13.93;6.68;;;;;;;;;;4872514;29;20126;-70
2021/11/25 01:12:01;;;;;;;14.80;7.15;;;;;;;;;;4872977;29;20096;-70
2021/11/25 01:14:30;;;;;;;11.32;6.15;;;;;;;;;;4875265;29;20506;-70
2021/11/25 01:16:59;;;;;;;10.50;5.87;;;;;;;;;;4858693;29;20162;-71
2021/11/25 01:19:28;;;;;;;17.05;7.07;;;;;;;;;;4870883;29;20086;-71
2021/11/25 01:21:59;;;;;;;17.08;6.60;;;;;;;;;;4871432;29;20568;-69
2021/11/25 01:24:28;;;;;;;13.70;6.55;;;;;;;;;;4889924;29;20166;-71
2021/11/25 01:26:57;;;;;;;15.70;6.60;;;;;;;;;;4887736;29;20177;-68
2021/11/25 01:29:26;;;;;;;14.00;7.30;;;;;;;;;;4874717;29;20101;-68
2021/11/25 01:31:54;;;;;;;14.20;8.20;;;;;;;;;;4857092;29;20078;-70
2021/11/25 01:34:23;;;;;;;16.50;6.30;;;;;;;;;;4871890;29;20099;-71
2021/11/25 01:36:57;;;;;;;15.43;6.95;;;;;;;;;;4871699;29;20836;-68
2021/11/25 01:39:28;;;;;;;14.27;6.22;;;;;;;;;;4874077;29;20087;-69
2021/11/25 01:41:57;;;;;;;14.90;6.77;;;;;;;;;;4868269;29;20091;-69
2021/11/25 01:44:26;;;;;;;14.93;5.75;;;;;;;;;;4873388;29;20089;-69
2021/11/25 01:46:54;;;;;;;14.40;6.57;;;;;;;;;;4873923;29;20145;-72
2021/11/25 01:49:23;;;;;;;15.38;6.78;;;;;;;;;;4875678;29;20078;-71
2021/11/25 01:51:52;;;;;;;17.20;6.50;;;;;;;;;;4873830;29;20084;-72
2021/11/25 01:54:21;;;;;;;11.73;6.40;;;;;;;;;;4873625;29;20159;-71
2021/11/25 01:56:51;;;;;;;16.42;6.82;;;;;;;;;;4891136;29;20556;-70
2021/11/25 01:59:20;;;;;;;19.00;6.80;;;;;;;;;;4872371;29;20117;-71
2021/11/25 02:01:48;;;;;;;15.85;6.75;;;;;;;;;;4876545;29;20081;-70
2021/11/25 02:04:17;;;;;;;13.20;6.90;;;;;;;;;;4855321;29;20171;-70
2021/11/25 02:06:45;;;;;;;16.90;7.73;;;;;;;;;;4874148;29;20438;-72
2021/11/25 02:09:14;;;;;;;16.83;7.78;;;;;;;;;;4876898;29;20602;-71
2021/11/25 02:11:43;;;;;;;15.60;7.03;;;;;;;;;;4857154;29;20701;-71
2021/11/25 02:14:13;;;;;;;11.95;5.90;;;;;;;;;;4871374;29;20573;-70
2021/11/25 02:16:42;;;;;;;14.32;5.50;;;;;;;;;;4869386;29;20082;-72
2021/11/25 02:19:11;;;;;;;14.53;7.27;;;;;;;;;;4871354;29;20078;-70
2021/11/25 02:21:41;;;;;;;12.90;6.00;;;;;;;;;;4871377;29;20368;-70
2021/11/25 02:24:11;;;;;;;14.07;7.82;;;;;;;;;;4872740;29;20166;-71
2021/11/25 02:26:40;;;;;;;13.32;7.20;;;;;;;;;;4870038;29;20551;-70
2021/11/25 02:29:09;;;;;;;15.05;6.22;;;;;;;;;;4872848;29;20169;-70
2021/11/25 02:31:37;;;;;;;13.83;6.13;;;;;;;;;;4870384;29;20071;-70
2021/11/25 02:34:06;;;;;;;14.43;6.10;;;;;;;;;;4873984;29;20082;-72
2021/11/25 02:39:30;;;;;;;12.85;5.80;;;;;;;;;;4855272;29;20446;-71
2021/11/25 02:41:59;;;;;;;16.50;5.72;;;;;;;;;;4870136;29;20075;-71
2021/11/25 02:44:27;;;;;;;15.67;7.27;;;;;;;;;;4874584;29;20095;-71
2021/11/25 02:47:00;;;;;;;13.18;6.55;;;;;;;;;;4872529;29;20169;-71
2021/11/25 02:49:29;;;;;;;16.25;5.85;;;;;;;;;;4871432;29;20144;-70
2021/11/25 02:51:58;;;;;;;15.75;6.95;;;;;;;;;;4870118;29;20084;-71
2021/11/25 02:54:27;;;;;;;13.15;6.55;;;;;;;;;;4872967;29;20428;-71
2021/11/25 02:56:57;;;;;;;15.30;6.33;;;;;;;;;;4868611;29;20087;-72
2021/11/25 02:59:26;;;;;;;13.70;7.07;;;;;;;;;;4872649;29;20089;-71
2021/11/25 03:01:55;;;;;;;11.77;6.45;;;;;;;;;;4870379;29;20574;-71
2021/11/25 03:04:24;;;;;;;13.13;5.80;;;;;;;;;;4872851;29;20087;-72
2021/11/25 03:06:53;;;;;;;16.30;6.90;;;;;;;;;;4874384;29;20091;-75
2021/11/25 03:09:21;;;;;;;12.47;6.03;;;;;;;;;;4871597;29;20113;-76
2021/11/25 03:11:53;;;;;;;12.75;6.07;;;;;;;;;;4873211;29;20082;-75
2021/11/25 03:14:24;;;;;;;13.80;6.15;;;;;;;;;;4877554;29;20175;-75
2021/11/25 03:16:53;;;;;;;17.38;6.72;;;;;;;;;;4876566;29;20090;-76
2021/11/25 03:19:21;;;;;;;12.30;5.80;;;;;;;;;;4878624;29;20167;-76
2021/11/25 03:21:50;;;;;;;14.07;6.50;;;;;;;;;;4875976;29;20082;-75
2021/11/25 03:24:19;;;;;;;13.57;5.75;;;;;;;;;;4873264;29;20081;-75
2021/11/25 03:26:49;;;;;;;13.77;6.28;;;;;;;;;;4875671;29;20161;-75
2021/11/25 03:29:18;;;;;;;14.43;5.95;;;;;;;;;;4874724;29;20167;-75
2021/11/25 03:31:48;;;;;;;15.57;7.45;;;;;;;;;;4875531;29;20522;-77
2021/11/25 03:34:16;;;;;;;15.73;5.87;;;;;;;;;;4872758;29;20119;-75
2021/11/25 03:39:41;;;;;;;11.65;6.35;;;;;;;;;;4876522;29;20085;-72
2021/11/25 03:42:11;;;;;;;19.02;7.05;;;;;;;;;;4875405;29;20546;-72
2021/11/25 03:44:43;;;;;;;14.90;7.30;;;;;;;;;;4878506;29;20078;-72
2021/11/25 03:47:14;;;;;;;13.97;7.07;;;;;;;;;;4873538;29;20433;-71
2021/11/25 03:49:43;;;;;;;13.25;6.78;;;;;;;;;;4893964;29;20087;-72
2021/11/25 03:52:12;;;;;;;16.48;6.75;;;;;;;;;;4877521;29;20543;-72
2021/11/25 03:54:41;;;;;;;17.17;6.72;;;;;;;;;;4872945;29;20094;-74
2021/11/25 03:57:10;;;;;;;13.27;5.85;;;;;;;;;;4874407;29;20074;-72
2021/11/25 03:59:38;;;;;;;15.83;7.57;;;;;;;;;;4854564;29;20085;-72
2021/11/25 04:02:07;;;;;;;18.17;7.32;;;;;;;;;;4874680;29;20104;-73
2021/11/25 04:04:38;;;;;;;15.27;6.75;;;;;;;;;;4868578;29;20177;-72
2021/11/25 04:07:07;;;;;;;11.68;6.38;;;;;;;;;;4874392;29;20095;-71
2021/11/25 04:09:35;;;;;;;16.45;7.20;;;;;;;;;;4875916;29;20557;-72
2021/11/25 04:12:04;;;;;;;17.80;6.70;;;;;;;;;;4874210;29;20091;-72
2021/11/25 04:14:34;;;;;;;21.17;7.30;;;;;;;;;;4874525;29;20083;-72
2021/11/25 04:17:03;;;;;;;13.82;6.35;;;;;;;;;;4875447;29;20076;-73
2021/11/25 04:19:32;;;;;;;14.65;7.15;;;;;;;;;;4877575;29;20576;-72
2021/11/25 04:22:27;;;;;;;14.88;5.28;;;;;;;;;;4870949;29;20174;-72
2021/11/25 04:24:57;;;;;;;13.87;5.57;;;;;;;;;;4855271;29;20078;-72
2021/11/25 04:27:27;;;;;;;18.98;8.05;;;;;;;;;;4874342;29;20102;-73
2021/11/25 04:30:02;;;;;;;13.93;6.55;;;;;;;;;;4875934;29;20078;-72
2021/11/25 04:35:32;;;;;;;16.77;5.90;;;;;;;;;;4874042;29;20088;-73
2021/11/25 04:38:04;;;;;;;20.93;7.70;;;;;;;;;;4875578;29;20103;-72
2021/11/25 04:40:35;;;;;;;18.48;6.78;;;;;;;;;;4873191;29;20089;-72
2021/11/25 04:43:05;;;;;;;15.15;6.68;;;;;;;;;;4875712;29;20080;-73
2021/11/25 04:45:34;;;;;;;21.15;6.90;;;;;;;;;;4879339;29;20083;-73
2021/11/25 04:48:07;;;;;;;17.45;6.43;;;;;;;;;;4873548;29;20076;-73
2021/11/25 04:50:37;;;;;;;18.00;6.93;;;;;;;;;;4873313;29;20105;-73
2021/11/25 04:53:07;;;;;;;13.57;6.53;;;;;;;;;;4859787;29;20108;-72
2021/11/25 04:55:35;;;;;;;13.88;6.45;;;;;;;;;;4872080;29;20089;-72
2021/11/25 04:58:04;;;;;;;13.57;6.35;;;;;;;;;;4873551;29;20175;-74
2021/11/25 05:00:34;;;;;;;20.92;8.48;;;;;;;;;;4873153;29;20094;-73
2021/11/25 05:03:03;;;;;;;17.60;8.73;;;;;;;;;;4871293;29;20088;-73
2021/11/25 05:05:33;;;;;;;19.08;6.95;;;;;;;;;;4867226;29;20604;-72
2021/11/25 05:08:02;;;;;;;27.58;8.02;;;;;;;;;;4855227;29;20083;-72
2021/11/25 05:10:32;;;;;;;15.15;7.30;;;;;;;;;;4871954;29;20091;-72
2021/11/25 05:13:00;;;;;;;27.70;8.35;;;;;;;;;;4873407;29;20083;-73
2021/11/25 05:15:30;;;;;;;14.03;6.40;;;;;;;;;;4872455;29;20072;-72
2021/11/25 05:17:59;;;;;;;17.05;6.70;;;;;;;;;;4881299;29;20086;-73
2021/11/25 05:20:28;;;;;;;21.63;8.63;;;;;;;;;;4888060;29;20085;-72
2021/11/25 05:22:57;;;;;;;16.60;7.90;;;;;;;;;;4884931;29;20451;-72
2021/11/25 05:25:26;;;;;;;18.17;7.07;;;;;;;;;;4873704;29;20585;-72
2021/11/25 05:27:57;;;;;;;13.83;6.80;;;;;;;;;;4876210;29;20076;-71
2021/11/25 05:30:31;;;;;;;14.70;7.30;;;;;;;;;;4870706;29;20096;-73
2021/11/25 05:33:00;;;;;;;14.98;6.93;;;;;;;;;;4860490;29;20172;-74
2021/11/25 05:35:30;;;;;;;14.60;7.50;;;;;;;;;;4873034;29;20079;-74
2021/11/25 05:38:01;;;;;;;18.80;7.47;;;;;;;;;;4876694;29;20097;-73
2021/11/25 05:40:30;;;;;;;14.87;6.57;;;;;;;;;;4872363;29;20577;-74
2021/11/25 05:43:00;;;;;;;14.00;5.97;;;;;;;;;;4873089;29;20556;-75
2021/11/25 05:45:28;;;;;;;14.77;7.30;;;;;;;;;;4855859;29;20082;-74
2021/11/25 05:47:57;;;;;;;17.20;6.50;;;;;;;;;;4872153;29;20105;-72
2021/11/25 05:50:50;;;;;;;18.48;7.60;;;;;;;;;;4878465;29;20078;-72
2021/11/25 05:53:25;;;;;;;16.47;7.50;;;;;;;;;;4875244;29;20075;-74
2021/11/25 05:55:54;;;;;;;21.63;7.90;;;;;;;;;;4877514;29;20102;-77
2021/11/25 05:58:24;;;;;;;18.50;6.95;;;;;;;;;;4877504;29;20100;-74
2021/11/25 06:00:53;;;;;;;19.67;7.47;;;;;;;;;;4879212;29;20423;-77
2021/11/25 06:03:25;;;;;;;17.10;7.97;;;;;;;;;;4872509;29;20106;-75
2021/11/25 06:05:54;;;;;;;17.80;6.93;;;;;;;;;;4870085;29;20187;-77
2021/11/25 06:08:23;;;;;;;15.25;6.85;;;;;;;;;;4877304;29;20093;-74
2021/11/25 06:10:51;;;;;;;14.98;7.47;;;;;;;;;;4878127;29;20086;-71
2021/11/25 06:13:20;;;;;;;20.27;8.07;;;;;;;;;;4879443;29;20558;-70
2021/11/25 06:15:50;;;;;;;29.33;9.68;;;;;;;;;;4876707;29;20443;-71
2021/11/25 06:18:20;;;;;;;17.83;6.97;;;;;;;;;;4872580;29;20073;-72
2021/11/25 06:20:49;;;;;;;22.50;7.68;;;;;;;;;;4880087;29;21418;-71
2021/11/25 06:23:20;;;;;;;23.45;8.63;;;;;;;;;;4880451;29;20353;-71
2021/11/25 06:25:49;;;;;;;17.33;7.32;;;;;;;;;;4880694;29;20077;-71
2021/11/25 06:28:18;;;;;;;17.55;7.75;;;;;;;;;;4879581;29;20086;-71
2021/11/25 06:30:46;;;;;;;19.37;7.27;;;;;;;;;;4870560;29;20176;-72
2021/11/25 06:33:16;;;;;;;26.80;7.47;;;;;;;;;;4877162;29;20088;-72
2021/11/25 06:35:45;;;;;;;16.85;7.30;;;;;;;;;;4876864;29;20200;-72
2021/11/25 06:38:18;;;;;;;17.38;7.68;;;;;;;;;;4889733;29;20423;-71
2021/11/25 06:40:47;;;;;;;17.00;7.00;;;;;;;;;;4876174;29;20083;-71
2021/11/25 06:43:16;;;;;;;21.47;8.07;;;;;;;;;;4871765;29;20113;-71
2021/11/25 06:45:44;;;;;;;21.25;6.90;;;;;;;;;;4879683;29;20105;-72
2021/11/25 06:48:13;;;;;;;21.17;8.05;;;;;;;;;;4876780;29;21568;-72
2021/11/25 06:50:44;;;;;;;19.90;7.88;;;;;;;;;;4886246;29;20097;-71
2021/11/25 06:53:12;;;;;;;22.35;7.38;;;;;;;;;;4880963;29;20079;-71
2021/11/25 06:55:41;;;;;;;18.87;7.20;;;;;;;;;;4877277;29;20085;-71
2021/11/25 06:58:10;;;;;;;15.35;6.20;;;;;;;;;;4863147;29;20098;-71
2021/11/25 07:00:40;;;;;;;19.67;7.03;;;;;;;;;;4880194;29;20080;-71
2021/11/25 07:03:08;;;;;;;16.50;7.10;;;;;;;;;;4876119;29;20106;-71
2021/11/25 07:05:38;;;;;;;22.00;9.27;;;;;;;;;;4882663;29;20171;-72
2021/11/25 07:08:09;;;;;;;17.03;8.07;;;;;;;;;;4891717;29;20077;-71
2021/11/25 07:10:37;;;;;;;18.52;7.97;;;;;;;;;;4879644;29;20093;-74
2021/11/25 07:13:06;;;;;;;20.42;7.05;;;;;;;;;;4890878;29;20165;-76
2021/11/25 07:15:35;;;;;;;20.85;8.32;;;;;;;;;;4901229;29;20088;-75
2021/11/25 07:18:05;;;;;;;17.95;9.05;;;;;;;;;;4878247;29;20096;-74
2021/11/25 07:20:33;;;;;;;17.10;7.30;;;;;;;;;;4865347;29;20103;-75
2021/11/25 07:23:02;;;;;;;22.63;10.25;;;;;;;;;;4873227;29;20091;-75
2021/11/25 07:25:33;;;;;;;21.15;8.68;;;;;;;;;;4876169;29;20078;-75
2021/11/25 07:28:02;;;;;;;19.40;8.50;;;;;;;;;;4875864;29;20085;-77
2021/11/25 07:30:30;;;;;;;18.17;7.63;;;;;;;;;;4872619;29;20441;-75
2021/11/25 07:32:59;;;;;;;23.07;8.10;;;;;;;;;;4874791;29;20085;-75
2021/11/25 07:35:28;;;;;;;15.23;6.60;;;;;;;;;;4867757;29;20505;-75
2021/11/25 07:38:03;;;;;;;17.52;8.48;;;;;;;;;;4897276;29;20447;-75
2021/11/25 07:40:33;;;;;;;26.77;7.43;;;;;;;;;;4881045;29;20095;-75
2021/11/25 07:43:02;;;;;;;16.83;6.40;;;;;;;;;;4877589;29;20180;-75
2021/11/25 07:45:32;;;;;;;19.77;8.73;;;;;;;;;;4883912;29;20092;-76
2021/11/25 07:48:00;;;;;;;21.95;7.97;;;;;;;;;;4873955;29;20073;-75
2021/11/25 07:50:54;;;;;;;20.98;8.82;;;;;;;;;;4873910;29;20094;-75
2021/11/25 07:53:23;;;;;;;23.52;8.70;;;;;;;;;;4873107;29;20159;-75
2021/11/25 07:55:53;;;;;;;19.98;8.90;;;;;;;;;;4880196;29;20129;-76
2021/11/25 07:58:22;;;;;;;21.10;8.23;;;;;;;;;;4882585;29;20450;-76
2021/11/25 08:00:51;;;;;;;21.17;8.70;;;;;;;;;;4884511;29;20517;-76
2021/11/25 08:03:20;;;;;;;15.63;7.03;;;;;;;;;;4881297;29;20088;-75
2021/11/25 08:05:50;;;;;;;21.00;8.40;;;;;;;;;;4886020;29;20151;-75
2021/11/25 08:08:20;;;;;;;25.40;10.80;;;;;;;;;;4875837;29;20180;-75
2021/11/25 08:10:49;;;;;;;27.57;9.40;;;;;;;;;;4876102;29;20167;-76
2021/11/25 08:13:19;;;;;;;22.52;9.60;;;;;;;;;;4860183;29;20084;-75
2021/11/25 08:15:47;;;;;;;25.33;9.63;;;;;;;;;;4874609;29;20496;-75
2021/11/25 08:18:17;;;;;;;21.23;8.15;;;;;;;;;;4872027;29;20138;-75
2021/11/25 08:20:46;;;;;;;17.67;7.68;;;;;;;;;;4873573;29;20173;-75
2021/11/25 08:23:15;;;;;;;17.30;8.40;;;;;;;;;;4871131;29;20278;-75
2021/11/25 08:25:44;;;;;;;22.25;7.55;;;;;;;;;;4875880;29;20081;-75
2021/11/25 08:28:13;;;;;;;18.88;8.98;;;;;;;;;;4874000;29;20075;-75
2021/11/25 08:30:43;;;;;;;21.67;8.38;;;;;;;;;;4874957;29;20160;-76
2021/11/25 08:33:12;;;;;;;20.05;9.07;;;;;;;;;;4860266;29;20079;-75
2021/11/25 08:35:41;;;;;;;27.10;8.47;;;;;;;;;;4886358;29;20089;-74
2021/11/25 08:38:10;;;;;;;27.50;8.68;;;;;;;;;;4875924;29;20087;-74
2021/11/25 08:40:39;;;;;;;20.80;9.38;;;;;;;;;;4870907;29;20104;-74
2021/11/25 08:43:08;;;;;;;22.60;8.90;;;;;;;;;;4898091;29;20427;-75
2021/11/25 08:45:38;;;;;;;25.75;11.07;;;;;;;;;;4877227;29;20137;-75
2021/11/25 08:48:09;;;;;;;20.43;6.97;;;;;;;;;;4878216;29;20093;-75
2021/11/25 08:50:38;;;;;;;23.75;9.02;;;;;;;;;;4865541;29;20719;-76
2021/11/25 08:53:07;;;;;;;23.63;8.60;;;;;;;;;;4872424;29;20085;-75
2021/11/25 08:55:36;;;;;;;22.85;9.65;;;;;;;;;;4859565;29;20087;-74
2021/11/25 08:58:05;;;;;;;21.25;8.85;;;;;;;;;;4881416;29;20544;-75
2021/11/25 09:00:34;;;;;;;22.23;9.13;;;;;;;;;;4881010;29;20083;-75
2021/11/25 09:03:04;;;;;;;27.20;9.80;;;;;;;;;;4862387;29;20182;-76
2021/11/25 09:08:29;;;;;;;20.75;8.55;;;;;;;;;;4876692;29;20141;-75
2021/11/25 09:10:58;;;;;;;25.25;10.23;;;;;;;;;;4872747;29;20095;-76
2021/11/25 09:13:28;;;;;;;19.13;8.33;;;;;;;;;;4875789;29;20083;-74
2021/11/25 09:15:58;;;;;;;17.88;7.97;;;;;;;;;;4874432;29;20172;-76
2021/11/25 09:18:27;;;;;;;26.05;8.32;;;;;;;;;;4874114;29;20082;-75
2021/11/25 09:20:58;;;;;;;14.80;7.55;;;;;;;;;;4874075;29;20085;-75
2021/11/25 09:23:27;;;;;;;22.75;9.73;;;;;;;;;;4871055;29;20103;-74
2021/11/25 09:25:56;;;;;;;19.03;8.50;;;;;;;;;;4880265;29;20096;-74
2021/11/25 09:28:27;;;;;;;24.15;9.48;;;;;;;;;;4870208;29;20578;-75
2021/11/25 09:30:56;;;;;;;19.55;8.65;;;;;;;;;;4872295;29;20629;-75
2021/11/25 09:33:26;;;;;;;22.45;8.35;;;;;;;;;;4871460;29;20092;-76
2021/11/25 09:35:54;;;;;;;21.80;7.85;;;;;;;;;;4871487;29;20168;-76
2021/11/25 09:38:25;;;;;;;23.20;8.27;;;;;;;;;;4874403;29;20166;-74
2021/11/25 09:40:54;;;;;;;23.83;8.32;;;;;;;;;;4871144;29;20086;-75
2021/11/25 09:43:24;;;;;;;21.30;7.40;;;;;;;;;;4874471;29;21484;-75
2021/11/25 09:45:53;;;;;;;18.60;6.88;;;;;;;;;;4872433;29;20110;-74
2021/11/25 09:48:27;;;;;;;14.20;6.50;;;;;;;;;;4870579;29;20176;-76
2021/11/25 09:50:57;;;;;;;16.33;7.30;;;;;;;;;;4876810;29;20174;-75
2021/11/25 09:53:28;;;;;;;22.05;9.32;;;;;;;;;;4872070;29;20082;-76
2021/11/25 09:55:57;;;;;;;16.88;7.68;;;;;;;;;;4875296;29;20087;-75
2021/11/25 09:58:27;;;;;;;17.20;7.07;;;;;;;;;;4870041;29;20105;-75
2021/11/25 10:01:02;;;;;;;16.90;7.97;;;;;;;;;;4872708;29;20072;-76
2021/11/25 10:03:31;;;;;;;17.47;8.83;;;;;;;;;;4857523;29;20190;-75
2021/11/25 10:06:00;;;;;;;21.08;7.45;;;;;;;;;;4872973;29;20058;-75
2021/11/25 10:08:32;;;;;;;19.88;8.32;;;;;;;;;;4876879;29;20090;-75
2021/11/25 10:11:04;;;;;;;24.05;8.55;;;;;;;;;;4884835;29;20062;-75
2021/11/25 10:13:37;;;;;;;22.50;8.25;;;;;;;;;;4877190;29;20493;-75
2021/11/25 10:16:12;;;;;;;20.07;6.90;;;;;;;;;;4871316;29;20171;-83
2021/11/25 10:18:41;;;;;;;16.23;8.20;;;;;;;;;;4871718;29;20564;-74
2021/11/25 10:21:35;;;;;;;19.45;8.00;;;;;;;;;;4872178;29;20098;-75
2021/11/25 10:24:05;;;;;;;23.67;8.07;;;;;;;;;;4866400;29;20083;-74
2021/11/25 10:26:35;;;;;;;21.15;8.50;;;;;;;;;;4880674;29;20086;-73
2021/11/25 10:29:06;;;;;;;17.77;7.97;;;;;;;;;;4868985;29;20049;-74
2021/11/25 10:31:36;;;;;;;25.13;9.57;;;;;;;;;;4870697;29;20171;-75
2021/11/25 10:34:08;;;;;;;25.35;9.00;;;;;;;;;;4889527;29;20092;-76
2021/11/25 10:42:31;;;;;;;19.03;8.50;;;;;;;;;;4867347;29;20137;-73
2021/11/25 10:45:00;;;;;;;21.10;8.85;;;;;;;;;;4888804;29;20283;-73
2021/11/25 10:47:30;;;;;;;22.13;9.18;;;;;;;;;;4867936;29;20161;-73
2021/11/25 10:49:59;;;;;;;18.02;7.40;;;;;;;;;;4872800;29;20081;-73
2021/11/25 10:52:31;;;;;;;22.88;8.75;;;;;;;;;;4876963;29;20094;-73
2021/11/25 10:55:02;;;;;;;19.70;8.83;;;;;;;;;;4870851;29;20086;-74
2021/11/25 10:57:38;;;;;;;25.65;10.02;;;;;;;;;;4869964;29;20545;-73
2021/11/25 11:00:08;;;;;;;22.48;7.90;;;;;;;;;;4869721;29;20079;-74
2021/11/25 11:02:37;;;;;;;18.02;8.40;;;;;;;;;;4860139;29;20143;-73
2021/11/25 11:05:10;;;;;;;16.45;8.95;;;;;;;;;;4871034;29;20082;-73
2021/11/25 11:07:44;;;;;;;25.07;9.60;;;;;;;;;;4876533;29;20106;-74
2021/11/25 11:10:21;;;;;;;17.30;9.02;;;;;;;;;;4870730;29;21420;-74
2021/11/25 11:12:58;;;;;;;26.25;9.27;;;;;;;;;;4871316;29;20092;-75
2021/11/25 11:15:33;;;;;;;21.25;9.00;;;;;;;;;;4867760;29;20177;-74
2021/11/25 11:20:48;;;;;;;26.67;9.13;;;;;;;;;;4870022;29;20079;-74
2021/11/25 11:23:19;;;;;;;18.23;7.18;;;;;;;;;;4868531;29;20098;-74
2021/11/25 11:25:50;;;;;;;12.40;6.38;;;;;;;;;;4870934;29;20592;-74
2021/11/25 11:28:19;;;;;;;18.95;8.23;;;;;;;;;;4870004;29;20113;-74
2021/11/25 11:30:47;;;;;;;16.73;7.68;;;;;;;;;;4866317;29;20085;-73
2021/11/25 11:33:17;;;;;;;17.60;7.77;;;;;;;;;;4875376;29;20469;-74
2021/11/25 11:35:46;;;;;;;20.73;8.70;;;;;;;;;;4879200;29;20086;-74
2021/11/25 11:38:15;;;;;;;22.48;7.65;;;;;;;;;;4873504;29;20086;-74
2021/11/25 11:40:45;;;;;;;26.23;9.07;;;;;;;;;;4888452;29;20077;-74
2021/11/25 11:43:15;;;;;;;24.73;8.07;;;;;;;;;;4889068;29;20154;-72
2021/11/25 11:45:45;;;;;;;19.23;6.63;;;;;;;;;;4885258;29;20099;-72
2021/11/25 11:48:15;;;;;;;22.17;8.98;;;;;;;;;;4882141;29;20070;-74
2021/11/25 11:50:48;;;;;;;18.05;7.28;;;;;;;;;;4875638;29;20089;-73
2021/11/25 11:53:18;;;;;;;20.48;8.27;;;;;;;;;;4870178;29;20101;-74
2021/11/25 11:55:50;;;;;;;20.27;7.72;;;;;;;;;;4872780;29;20071;-74
2021/11/25 11:58:25;;;;;;;21.33;8.70;;;;;;;;;;4881015;29;20671;-73
2021/11/25 12:00:54;;;;;;;24.48;8.95;;;;;;;;;;4872625;29;20175;-74
2021/11/25 12:03:42;;;;;;;17.42;8.00;;;;;;;;;;4870914;29;20080;-74
2021/11/25 12:06:12;;;;;;;23.10;10.48;;;;;;;;;;4874446;29;20174;-73
2021/11/25 12:08:41;;;;;;;17.88;8.00;;;;;;;;;;4874422;29;20056;-74
2021/11/25 12:11:12;;;;;;;20.73;7.70;;;;;;;;;;4873152;29;20546;-74
2021/11/25 12:14:03;;;;;;;21.98;9.27;;;;;;;;;;4874248;29;20114;-73
2021/11/25 12:16:34;;;;;;;21.85;8.15;;;;;;;;;;4857689;29;20536;-73
2021/11/25 12:19:05;;;;;;;23.40;9.75;;;;;;;;;;4859721;29;20085;-73
2021/11/25 12:21:37;;;;;;;21.85;8.25;;;;;;;;;;4871539;29;20164;-74
2021/11/25 12:24:11;;;;;;;20.07;8.60;;;;;;;;;;4874066;29;20083;-73
2021/11/25 12:26:59;;;;;;;19.65;8.32;;;;;;;;;;4859409;29;20531;-73
2021/11/25 12:29:36;;;;;;;18.27;7.28;;;;;;;;;;4867259;29;20076;-73
2021/11/25 12:32:26;;;;;;;21.27;8.38;;;;;;;;;;4870287;29;20143;-73
2021/11/25 12:34:55;;;;;;;18.83;8.55;;;;;;;;;;4871457;29;20553;-73
2021/11/25 12:37:43;;;;;;;18.30;7.40;;;;;;;;;;4887860;29;20261;-74
2021/11/25 12:40:46;;;;;;;17.85;10.02;;;;;;;;;;4882381;29;20102;-74
2021/11/25 12:43:16;;;;;;;26.38;8.98;;;;;;;;;;4871986;29;20183;-74
2021/11/25 12:45:47;;;;;;;18.67;6.82;;;;;;;;;;4877951;29;20110;-73
2021/11/25 12:48:22;;;;;;;23.88;10.07;;;;;;;;;;4888592;29;20449;-73
2021/11/25 12:50:53;;;;;;;24.53;9.87;;;;;;;;;;4878155;29;20086;-74
2021/11/25 12:53:26;;;;;;;19.38;9.73;;;;;;;;;;4876235;29;20087;-74
2021/11/25 12:55:56;;;;;;;20.05;7.65;;;;;;;;;;4888210;29;20074;-74
2021/11/25 12:58:33;;;;;;;23.05;8.18;;;;;;;;;;4874884;29;20080;-72
2021/11/25 13:01:29;;;;;;;19.52;7.93;;;;;;;;;;4890552;29;20113;-74
2021/11/25 13:04:00;;;;;;;20.00;7.30;;;;;;;;;;4883924;29;20084;-73
2021/11/25 13:06:29;;;;;;;24.15;8.77;;;;;;;;;;4873496;29;20120;-74
2021/11/25 13:09:01;;;;;;;18.08;7.72;;;;;;;;;;4880790;29;20170;-74
2021/11/25 13:11:33;;;;;;;15.65;7.25;;;;;;;;;;4875044;29;20401;-74
2021/11/25 13:14:04;;;;;;;20.27;7.10;;;;;;;;;;4877317;29;21739;-75
2021/11/25 13:16:41;;;;;;;18.33;8.23;;;;;;;;;;4875227;29;20173;-74
2021/11/25 13:19:11;;;;;;;20.00;8.25;;;;;;;;;;4869939;29;20052;-74
2021/11/25 13:21:41;;;;;;;22.52;7.80;;;;;;;;;;4868658;29;20091;-74
2021/11/25 13:24:13;;;;;;;22.20;8.93;;;;;;;;;;4879678;29;20090;-74
2021/11/25 13:26:43;;;;;;;18.08;8.52;;;;;;;;;;4872230;29;20152;-74
2021/11/25 13:29:12;;;;;;;13.73;6.20;;;;;;;;;;4877667;29;20122;-74
2021/11/25 13:31:42;;;;;;;18.38;6.88;;;;;;;;;;4874182;29;20119;-74
2021/11/25 13:34:12;;;;;;;23.80;7.65;;;;;;;;;;4880412;29;20084;-74
2021/11/25 13:36:50;;;;;;;23.52;8.65;;;;;;;;;;4871070;29;20083;-74
2021/11/25 13:39:45;;;;;;;20.73;7.60;;;;;;;;;;4865028;29;20090;-74
2021/11/25 13:42:15;;;;;;;19.83;8.17;;;;;;;;;;4871390;29;20086;-75
2021/11/25 13:45:09;;;;;;;16.83;6.15;;;;;;;;;;4873017;29;20094;-75
2021/11/25 13:47:44;;;;;;;18.55;7.35;;;;;;;;;;4871486;29;20096;-73
2021/11/25 13:50:13;;;;;;;16.90;6.68;;;;;;;;;;4869869;29;20439;-74
2021/11/25 13:52:43;;;;;;;15.95;7.70;;;;;;;;;;4880274;29;20110;-74
2021/11/25 13:55:14;;;;;;;13.37;6.00;;;;;;;;;;4874686;29;20114;-74
2021/11/25 13:57:43;;;;;;;20.45;7.32;;;;;;;;;;4875969;29;20566;-74
2021/11/25 14:00:18;;;;;;;16.70;6.20;;;;;;;;;;4853238;29;20097;-75
2021/11/25 14:02:48;;;;;;;18.48;6.97;;;;;;;;;;4871186;29;20104;-74
2021/11/25 14:05:18;;;;;;;14.63;6.95;;;;;;;;;;4872299;29;20250;-74
2021/11/25 14:07:47;;;;;;;15.00;6.83;;;;;;;;;;4877746;29;20083;-73
2021/11/25 14:10:17;;;;;;;21.50;7.50;;;;;;;;;;4880750;29;20079;-74
2021/11/25 14:12:47;;;;;;;21.33;6.07;;;;;;;;;;4883070;29;20082;-74
2021/11/25 14:15:25;;;;;;;22.38;8.35;;;;;;;;;;4871023;29;20444;-74
2021/11/25 14:17:56;;;;;;;22.85;7.78;;;;;;;;;;4872238;29;21230;-73
2021/11/25 14:20:26;;;;;;;24.77;7.57;;;;;;;;;;4869810;29;20116;-73
2021/11/25 14:22:58;;;;;;;21.48;9.32;;;;;;;;;;4895323;29;20586;-74
2021/11/25 14:25:32;;;;;;;16.10;6.50;;;;;;;;;;4886630;29;20489;-74
2021/11/25 14:31:12;;;;;;;16.58;6.07;;;;;;;;;;4871179;29;20117;-74
2021/11/25 14:33:47;;;;;;;21.00;6.40;;;;;;;;;;4895576;29;20093;-74
2021/11/25 14:36:21;;;;;;;17.55;8.07;;;;;;;;;;4881135;29;20090;-79
2021/11/25 14:38:50;;;;;;;24.60;8.65;;;;;;;;;;4877693;29;20187;-75
2021/11/25 14:41:28;;;;;;;19.45;7.80;;;;;;;;;;4877172;29;20095;-80
2021/11/25 14:44:01;;;;;;;19.33;7.47;;;;;;;;;;4868309;29;20560;-76
2021/11/25 14:46:35;;;;;;;22.17;6.87;;;;;;;;;;4879926;29;20064;-77
2021/11/25 14:49:07;;;;;;;22.77;6.70;;;;;;;;;;4862312;29;20085;-75
2021/11/25 14:51:36;;;;;;;18.13;8.38;;;;;;;;;;4881416;29;20087;-75
2021/11/25 14:54:05;;;;;;;19.38;6.90;;;;;;;;;;4873298;29;20083;-74
2021/11/25 14:56:38;;;;;;;22.95;7.45;;;;;;;;;;4868531;29;20592;-75
2021/11/25 14:59:12;;;;;;;27.43;8.47;;;;;;;;;;4865272;29;20549;-79
2021/11/25 15:01:44;;;;;;;18.65;8.10;;;;;;;;;;4867547;29;20206;-80
2021/11/25 15:04:17;;;;;;;21.75;8.15;;;;;;;;;;4892542;29;20453;-76
2021/11/25 15:06:47;;;;;;;22.90;8.27;;;;;;;;;;4877838;29;20530;-76
2021/11/25 15:09:17;;;;;;;21.05;7.15;;;;;;;;;;4879814;29;20227;-74
2021/11/25 15:11:47;;;;;;;18.77;7.07;;;;;;;;;;4878804;29;20082;-73
2021/11/25 15:14:17;;;;;;;16.85;6.53;;;;;;;;;;4878386;29;20344;-76